MSC Lisbon — A8LL9 — position and weather

sailwx.info

Track history (hours):
 
Tides and Currents Weather Stations Pressure Air Temp Water Temp Dewpoint Dewpoint Depression Visibility Wind Speed Wind Dir Waves Ship Positions

MSC Lisbon

Last reported at 2017-Feb-26 14:29 UTC. Time now 2017-Feb-27 14:09 UTC.
Position N 36°02' W 005°00'.

Length 336.7 m; beam 45.6 m; draft 15.3 m.

Type: Ship (hazmat cat A). MMSI: 636091276.

Date/timePositionNaut miles runAvg speedWind from/ knotsBaromVisibWave heightAir tempDewpointWater temp
2017-Feb-26 14:29N 36°02' W 005°00'1920.7
2017-Feb-26 13:34N 35°58' W 005°24'1919.2
2017-Feb-26 12:33N 35°54' W 005°47'19118.5
2017-Feb-26 02:14N 36°18' W 009°41'81418.9
2017-Feb-24 07:13N 40°16' W 026°13'5821.3
2017-Feb-24 04:30N 40°27' W 027°27'2721.0
2017-Feb-24 03:13N 40°32' W 028°02'3621.2
2017-Feb-24 01:32N 40°39' W 028°49'2121.2
2017-Feb-24 00:33N 40°42' W 029°15'2121.5
2017-Feb-23 23:33N 40°45' W 029°44'2121.5
2017-Feb-23 22:33N 40°48' W 030°12'2121.5
2017-Feb-23 21:33N 40°52' W 030°39'2121.3
2017-Feb-23 20:33N 40°56' W 031°07'2121.2
2017-Feb-23 19:33N 40°59' W 031°36'2221.3
2017-Feb-23 18:31N 41°02' W 032°04'2721.4
2017-Feb-23 17:16N 41°05' W 032°39'3721.4
2017-Feb-23 15:31N 41°10' W 033°29'2321.1
2017-Feb-23 14:24N 41°13' W 033°60'2621.0
2017-Feb-23 13:10N 41°16' W 034°34'1420.9
2017-Feb-23 12:32N 41°17' W 034°52'2320.9
2017-Feb-23 11:27N 41°19' W 035°22'2120.6
2017-Feb-23 10:25N 41°21' W 035°50'  
2017-Feb-19 23:25N 40°25' W 073°37'9 9.9
2017-Feb-19 22:32N 40°27' W 073°48'9 9.4
2017-Feb-19 21:33N 40°31' W 073°59'10 9.5
2017-Feb-19 20:33N 40°39' W 074°06'3 2.5
2017-Feb-19 19:33N 40°40' W 074°09'0 0.0
2017-Feb-19 18:32N 40°40' W 074°09'0 0.0
2017-Feb-19 17:32N 40°40' W 074°09'0 0.0
2017-Feb-19 16:32N 40°40' W 074°09'0 0.0
2017-Feb-19 15:32N 40°40' W 074°09'0 0.0
2017-Feb-19 14:32N 40°40' W 074°09'0 0.0
2017-Feb-19 13:32N 40°40' W 074°09'0 0.0
2017-Feb-19 12:32N 40°40' W 074°09'0 0.0
2017-Feb-19 11:32N 40°40' W 074°09'0 0.0
2017-Feb-19 10:32N 40°40' W 074°09'0 0.0
2017-Feb-19 09:32N 40°40' W 074°09'0 0.0
2017-Feb-19 08:32N 40°40' W 074°09'0 0.0
2017-Feb-19 07:32N 40°40' W 074°09'0 0.0
2017-Feb-19 06:32N 40°40' W 074°09'0 0.0
2017-Feb-19 05:31N 40°40' W 074°09'0 0.0
2017-Feb-19 04:31N 40°40' W 074°09'0 0.0
2017-Feb-19 03:31N 40°40' W 074°09'0 0.0
2017-Feb-19 02:31N 40°40' W 074°09'0 0.0
2017-Feb-19 01:31N 40°40' W 074°09'0 0.0
2017-Feb-19 00:31N 40°40' W 074°09'0 0.0
2017-Feb-18 23:31N 40°40' W 074°09'0 0.0
2017-Feb-18 22:31N 40°40' W 074°09'1 1.5
2017-Feb-18 21:33N 40°38' W 074°09'5 4.8
2017-Feb-18 20:33N 40°37' W 074°03'9 8.8
2017-Feb-18 19:33N 40°30' W 073°56'8 8.4
2017-Feb-18 18:33N 40°24' W 073°47'9 8.9
2017-Feb-18 17:32N 40°15' W 073°46'3311.0
2017-Feb-18 14:33N 39°43' W 073°42'1211.6
2017-Feb-18 13:33N 39°32' W 073°48'1514.5
2017-Feb-18 12:33N 39°18' W 073°55'1817.7
2017-Feb-18 11:33N 39°02' W 074°03'1817.8
2017-Feb-18 10:33N 38°46' W 074°13'1817.8
2017-Feb-18 09:32N 38°29' W 074°22'12015.0
2017-Feb-18 01:32N 36°52' W 075°52'9 9.2
2017-Feb-18 00:33N 36°58' W 075°60'6913.7
2017-Feb-17 19:32N 38°06' W 076°13'5016.9
2017-Feb-17 16:33N 38°56' W 076°23'1413.5
2017-Feb-17 15:33N 39°09' W 076°25'8 8.0
2017-Feb-17 14:32N 39°15' W 076°32'0 0.0
2017-Feb-17 13:32N 39°15' W 076°32'0 0.0
2017-Feb-17 12:32N 39°15' W 076°32'0 0.0
2017-Feb-17 11:32N 39°15' W 076°32'0 0.0
2017-Feb-17 10:32N 39°15' W 076°32'0 0.0
2017-Feb-17 09:32N 39°15' W 076°32'0 0.0
2017-Feb-17 08:32N 39°15' W 076°32'0 0.0
2017-Feb-17 07:32N 39°15' W 076°32'0 0.0
2017-Feb-17 06:32N 39°15' W 076°32'0 0.0
2017-Feb-17 05:32N 39°15' W 076°32'0 0.0
2017-Feb-17 04:32N 39°15' W 076°32'0 0.0
2017-Feb-17 03:32N 39°15' W 076°32'0 0.0
2017-Feb-17 02:32N 39°15' W 076°32'0 0.0
2017-Feb-17 01:32N 39°15' W 076°32'0 0.0
2017-Feb-17 00:32N 39°15' W 076°32'0 0.0
2017-Feb-16 23:32N 39°15' W 076°32'0 0.0
2017-Feb-16 22:32N 39°15' W 076°32'0 0.0
2017-Feb-16 21:32N 39°15' W 076°32'0 0.0
2017-Feb-16 20:32N 39°15' W 076°32'0 0.0
2017-Feb-16 19:32N 39°15' W 076°32'0 0.0
2017-Feb-16 18:32N 39°15' W 076°32'0 0.0
2017-Feb-16 17:32N 39°15' W 076°32'0 0.0
2017-Feb-16 16:32N 39°15' W 076°32'0 0.0
2017-Feb-16 15:32N 39°15' W 076°32'0 0.0
2017-Feb-16 14:32N 39°15' W 076°32'  
Track history (hours):
 
Tides and Currents Weather Stations Pressure Air Temp Water Temp Dewpoint Dewpoint Depression Visibility Wind Speed Wind Dir Waves Ship Positions

MSC Lisbon

Last reported at 2017-Feb-26 14:29 UTC. Time now 2017-Feb-27 14:09 UTC.
Position N 36°02' W 005°00'.

Length 336.7 m; beam 45.6 m; draft 15.3 m.

Type: Ship (hazmat cat A). MMSI: 636091276.

Date/timePositionNaut miles runAvg speedWind from/ knotsBaromVisibWave heightAir tempDewpointWater temp
2017-Feb-26 14:29N 36°02' W 005°00'1920.7
2017-Feb-26 13:34N 35°58' W 005°24'1919.2
2017-Feb-26 12:33N 35°54' W 005°47'19118.5
2017-Feb-26 02:14N 36°18' W 009°41'81418.9
2017-Feb-24 07:13N 40°16' W 026°13'5821.3
2017-Feb-24 04:30N 40°27' W 027°27'2721.0
2017-Feb-24 03:13N 40°32' W 028°02'3621.2
2017-Feb-24 01:32N 40°39' W 028°49'2121.2
2017-Feb-24 00:33N 40°42' W 029°15'2121.5
2017-Feb-23 23:33N 40°45' W 029°44'2121.5
2017-Feb-23 22:33N 40°48' W 030°12'2121.5
2017-Feb-23 21:33N 40°52' W 030°39'2121.3
2017-Feb-23 20:33N 40°56' W 031°07'2121.2
2017-Feb-23 19:33N 40°59' W 031°36'2221.3
2017-Feb-23 18:31N 41°02' W 032°04'2721.4
2017-Feb-23 17:16N 41°05' W 032°39'3721.4
2017-Feb-23 15:31N 41°10' W 033°29'2321.1
2017-Feb-23 14:24N 41°13' W 033°60'2621.0
2017-Feb-23 13:10N 41°16' W 034°34'1420.9
2017-Feb-23 12:32N 41°17' W 034°52'2320.9
2017-Feb-23 11:27N 41°19' W 035°22'2120.6
2017-Feb-23 10:25N 41°21' W 035°50'  
2017-Feb-19 23:25N 40°25' W 073°37'9 9.9
2017-Feb-19 22:32N 40°27' W 073°48'9 9.4
2017-Feb-19 21:33N 40°31' W 073°59'10 9.5
2017-Feb-19 20:33N 40°39' W 074°06'3 2.5
2017-Feb-19 19:33N 40°40' W 074°09'0 0.0
2017-Feb-19 18:32N 40°40' W 074°09'0 0.0
2017-Feb-19 17:32N 40°40' W 074°09'0 0.0
2017-Feb-19 16:32N 40°40' W 074°09'0 0.0
2017-Feb-19 15:32N 40°40' W 074°09'0 0.0
2017-Feb-19 14:32N 40°40' W 074°09'0 0.0
2017-Feb-19 13:32N 40°40' W 074°09'0 0.0
2017-Feb-19 12:32N 40°40' W 074°09'0 0.0
2017-Feb-19 11:32N 40°40' W 074°09'0 0.0
2017-Feb-19 10:32N 40°40' W 074°09'0 0.0
2017-Feb-19 09:32N 40°40' W 074°09'0 0.0
2017-Feb-19 08:32N 40°40' W 074°09'0 0.0
2017-Feb-19 07:32N 40°40' W 074°09'0 0.0
2017-Feb-19 06:32N 40°40' W 074°09'0 0.0
2017-Feb-19 05:31N 40°40' W 074°09'0 0.0
2017-Feb-19 04:31N 40°40' W 074°09'0 0.0
2017-Feb-19 03:31N 40°40' W 074°09'0 0.0
2017-Feb-19 02:31N 40°40' W 074°09'0 0.0
2017-Feb-19 01:31N 40°40' W 074°09'0 0.0
2017-Feb-19 00:31N 40°40' W 074°09'0 0.0
2017-Feb-18 23:31N 40°40' W 074°09'0 0.0
2017-Feb-18 22:31N 40°40' W 074°09'1 1.5
2017-Feb-18 21:33N 40°38' W 074°09'5 4.8
2017-Feb-18 20:33N 40°37' W 074°03'9 8.8
2017-Feb-18 19:33N 40°30' W 073°56'8 8.4
2017-Feb-18 18:33N 40°24' W 073°47'9 8.9
2017-Feb-18 17:32N 40°15' W 073°46'3311.0
2017-Feb-18 14:33N 39°43' W 073°42'1211.6
2017-Feb-18 13:33N 39°32' W 073°48'1514.5
2017-Feb-18 12:33N 39°18' W 073°55'1817.7
2017-Feb-18 11:33N 39°02' W 074°03'1817.8
2017-Feb-18 10:33N 38°46' W 074°13'1817.8
2017-Feb-18 09:32N 38°29' W 074°22'12015.0
2017-Feb-18 01:32N 36°52' W 075°52'9 9.2
2017-Feb-18 00:33N 36°58' W 075°60'6913.7
2017-Feb-17 19:32N 38°06' W 076°13'5016.9
2017-Feb-17 16:33N 38°56' W 076°23'1413.5
2017-Feb-17 15:33N 39°09' W 076°25'8 8.0
2017-Feb-17 14:32N 39°15' W 076°32'0 0.0
2017-Feb-17 13:32N 39°15' W 076°32'0 0.0
2017-Feb-17 12:32N 39°15' W 076°32'0 0.0
2017-Feb-17 11:32N 39°15' W 076°32'0 0.0
2017-Feb-17 10:32N 39°15' W 076°32'0 0.0
2017-Feb-17 09:32N 39°15' W 076°32'0 0.0
2017-Feb-17 08:32N 39°15' W 076°32'0 0.0
2017-Feb-17 07:32N 39°15' W 076°32'0 0.0
2017-Feb-17 06:32N 39°15' W 076°32'0 0.0
2017-Feb-17 05:32N 39°15' W 076°32'0 0.0
2017-Feb-17 04:32N 39°15' W 076°32'0 0.0
2017-Feb-17 03:32N 39°15' W 076°32'0 0.0
2017-Feb-17 02:32N 39°15' W 076°32'0 0.0
2017-Feb-17 01:32N 39°15' W 076°32'0 0.0
2017-Feb-17 00:32N 39°15' W 076°32'0 0.0
2017-Feb-16 23:32N 39°15' W 076°32'0 0.0
2017-Feb-16 22:32N 39°15' W 076°32'0 0.0
2017-Feb-16 21:32N 39°15' W 076°32'0 0.0
2017-Feb-16 20:32N 39°15' W 076°32'0 0.0
2017-Feb-16 19:32N 39°15' W 076°32'0 0.0
2017-Feb-16 18:32N 39°15' W 076°32'0 0.0
2017-Feb-16 17:32N 39°15' W 076°32'0 0.0
2017-Feb-16 16:32N 39°15' W 076°32'0 0.0
2017-Feb-16 15:32N 39°15' W 076°32'0 0.0
2017-Feb-16 14:32N 39°15' W 076°32'  

Dump ship's entire track history